Time;durP1;ratioP1;P1;durP2;ratioP2;P2;SDS_P1;SDS_P2;PMS_P1;PMS_P2;Temp;Humidity;BMP_temperature;BMP_pressure;BME280_temperature;BME280_humidity;BME280_pressure;Samples;Min_cycle;Max_cycle;Signal;HPM_P1;HPM_P2
2022/01/26 00:06:37;;;;;;;0.77;0.77;;;-2.70;99.90;;;;;;4996392;28;20213;-76
2022/01/26 00:09:05;;;;;;;0.80;0.80;;;-2.60;99.90;;;;;;5007862;28;20207;-76
2022/01/26 00:11:31;;;;;;;1.05;1.02;;;-2.60;99.90;;;;;;5013135;28;20279;-75
2022/01/26 00:14:02;;;;;;;0.75;0.75;;;-2.60;99.90;;;;;;5012065;28;20626;-75
2022/01/26 00:16:38;;;;;;;0.80;0.80;;;-2.60;99.90;;;;;;5012883;28;20209;-75
2022/01/26 00:19:06;;;;;;;0.80;0.80;;;-2.60;99.90;;;;;;5013977;28;20199;-77
2022/01/26 00:21:36;;;;;;;1.15;1.05;;;-2.50;99.90;;;;;;5012796;28;20214;-75
2022/01/26 00:24:27;;;;;;;0.73;0.73;;;-2.50;99.90;;;;;;5012700;28;20211;-75
2022/01/26 00:29:30;;;;;;;0.70;0.70;;;-2.40;99.90;;;;;;5013846;28;20203;-75
2022/01/26 00:33:06;;;;;;;0.85;0.85;;;-2.30;99.90;;;;;;5013662;28;20285;-75
2022/01/26 00:40:40;;;;;;;0.70;0.70;;;-1.80;99.90;;;;;;4998848;28;20210;-76
2022/01/26 00:43:23;;;;;;;0.70;0.70;;;-1.60;99.90;;;;;;5010878;28;20237;-76
2022/01/26 00:45:55;;;;;;;0.70;0.70;;;-1.40;99.90;;;;;;5011919;28;20211;-75
2022/01/26 00:48:21;;;;;;;0.70;0.70;;;-1.10;99.90;;;;;;5012701;28;20241;-77
2022/01/26 00:50:51;;;;;;;0.70;0.70;;;-1.00;99.90;;;;;;5011836;28;20229;-76
2022/01/26 00:53:24;;;;;;;0.70;0.70;;;-0.80;99.90;;;;;;5011056;28;20214;-76
2022/01/26 00:55:56;;;;;;;0.70;0.70;;;-0.70;99.90;;;;;;5011499;28;20277;-75
2022/01/26 00:58:22;;;;;;;0.70;0.70;;;-0.60;99.90;;;;;;5013230;28;20752;-76
2022/01/26 01:00:47;;;;;;;0.70;0.70;;;-0.50;99.90;;;;;;5011649;28;20211;-76
2022/01/26 01:03:13;;;;;;;0.60;0.60;;;-0.50;99.90;;;;;;5010470;28;20281;-75
2022/01/26 01:05:48;;;;;;;0.70;0.70;;;-0.50;99.90;;;;;;5026994;28;20202;-75
2022/01/26 01:08:18;;;;;;;0.80;0.80;;;-0.50;99.90;;;;;;4994421;28;20298;-75
2022/01/26 01:10:46;;;;;;;0.60;0.60;;;-0.30;99.90;;;;;;5011478;28;20238;-75
2022/01/26 01:13:18;;;;;;;0.70;0.70;;;-0.20;99.90;;;;;;5010706;28;20198;-76
2022/01/26 01:15:45;;;;;;;0.50;0.50;;;-0.10;99.90;;;;;;4996282;28;20205;-75
2022/01/26 01:23:48;;;;;;;1.05;1.00;;;0.00;99.90;;;;;;5011268;28;20235;-75
2022/01/26 01:31:17;;;;;;;0.60;0.60;;;0.20;99.90;;;;;;4995001;28;20297;-76
2022/01/26 01:33:48;;;;;;;0.70;0.70;;;0.30;99.90;;;;;;5010507;28;20226;-76
2022/01/26 01:36:14;;;;;;;0.60;0.60;;;0.30;99.90;;;;;;5011576;28;20729;-76
2022/01/26 01:38:42;;;;;;;0.60;0.60;;;0.30;99.90;;;;;;5011591;28;20593;-75
2022/01/26 01:41:08;;;;;;;0.60;0.60;;;0.40;99.90;;;;;;5012505;28;20191;-77
2022/01/26 01:43:34;;;;;;;0.65;0.65;;;0.40;99.90;;;;;;5011209;28;20228;-75
2022/01/26 01:46:01;;;;;;;0.70;0.70;;;0.40;99.90;;;;;;5011783;28;20206;-77
2022/01/26 01:48:30;;;;;;;0.70;0.70;;;0.40;99.90;;;;;;5011376;28;20211;-77
2022/01/26 01:50:59;;;;;;;0.70;0.70;;;0.30;99.90;;;;;;5010473;28;20226;-75
2022/01/26 01:53:37;;;;;;;1.33;1.23;;;0.30;99.90;;;;;;5010274;28;20682;-76
2022/01/26 01:56:04;;;;;;;0.70;0.70;;;0.30;99.90;;;;;;5010118;28;20686;-76
2022/01/26 01:58:30;;;;;;;0.50;0.50;;;0.30;99.90;;;;;;5011943;28;20684;-76
2022/01/26 02:00:56;;;;;;;0.50;0.50;;;0.20;99.90;;;;;;5015441;28;20215;-78
2022/01/26 02:03:23;;;;;;;0.75;0.75;;;0.20;99.90;;;;;;5015267;28;20685;-78
2022/01/26 02:05:48;;;;;;;0.95;0.95;;;0.20;99.90;;;;;;5015877;28;20199;-78
2022/01/26 02:08:14;;;;;;;0.60;0.60;;;0.10;99.90;;;;;;5015429;28;20571;-78
2022/01/26 02:10:40;;;;;;;0.60;0.60;;;0.10;99.90;;;;;;5016576;28;20296;-78
2022/01/26 02:13:16;;;;;;;0.70;0.70;;;0.10;99.90;;;;;;5016057;28;20595;-78
2022/01/26 02:16:32;;;;;;;0.70;0.70;;;0.10;99.90;;;;;;5015710;28;20198;-77
2022/01/26 02:51:13;;;;;;;0.70;0.70;;;0.20;99.90;;;;;;5014370;28;20614;-79
2022/01/26 02:53:57;;;;;;;0.80;0.80;;;0.30;99.90;;;;;;5014616;28;20242;-78
2022/01/26 02:56:39;;;;;;;1.10;1.10;;;0.50;99.90;;;;;;5014024;28;20202;-78
2022/01/26 03:04:43;;;;;;;0.60;0.60;;;0.60;99.90;;;;;;5005941;28;20238;-79
2022/01/26 03:09:40;;;;;;;0.70;0.70;;;0.90;99.90;;;;;;5013779;28;20233;-78
2022/01/26 03:12:08;;;;;;;0.77;0.77;;;0.80;99.90;;;;;;5014525;28;20191;-78
2022/01/26 03:14:51;;;;;;;1.05;1.05;;;0.80;99.90;;;;;;5012798;28;20350;-79
2022/01/26 03:19:56;;;;;;;0.65;0.65;;;0.90;99.90;;;;;;5015006;28;20673;-78
2022/01/26 03:36:13;;;;;;;0.60;0.60;;;0.70;99.90;;;;;;5015348;28;20288;-79
2022/01/26 03:38:44;;;;;;;0.70;0.70;;;0.50;99.90;;;;;;5015156;28;20218;-79
2022/01/26 03:43:53;;;;;;;0.60;0.60;;;0.50;99.90;;;;;;5016631;28;20264;-79
2022/01/26 03:46:19;;;;;;;0.70;0.70;;;0.50;99.90;;;;;;5014595;28;20263;-78
2022/01/26 03:48:45;;;;;;;0.70;0.70;;;0.40;99.90;;;;;;5014331;28;20214;-78
2022/01/26 03:51:10;;;;;;;0.70;0.70;;;0.50;99.90;;;;;;5012148;28;20215;-78
2022/01/26 03:53:36;;;;;;;0.60;0.60;;;0.50;99.90;;;;;;5013366;28;20576;-79
2022/01/26 03:56:02;;;;;;;0.70;0.70;;;0.50;99.90;;;;;;5015727;28;20256;-78
2022/01/26 03:58:28;;;;;;;0.70;0.70;;;0.70;99.90;;;;;;5014952;28;20221;-80
2022/01/26 04:00:54;;;;;;;0.50;0.50;;;0.60;99.90;;;;;;5014715;28;20202;-78
2022/01/26 04:03:20;;;;;;;0.70;0.70;;;0.60;99.90;;;;;;5012762;28;20234;-78
2022/01/26 04:05:45;;;;;;;0.65;0.65;;;0.70;99.90;;;;;;5015203;28;20268;-78
2022/01/26 04:08:17;;;;;;;1.25;0.95;;;0.60;99.90;;;;;;5014743;28;20211;-78
2022/01/26 04:11:10;;;;;;;0.70;0.70;;;0.50;99.90;;;;;;5013460;28;20605;-78
2022/01/26 04:13:31;;;;;;;0.60;0.60;;;0.60;99.90;;;;;;5015713;28;20737;-79
2022/01/26 04:15:57;;;;;;;0.60;0.60;;;0.50;99.90;;;;;;5013366;28;20228;-78
2022/01/26 04:18:29;;;;;;;1.13;1.05;;;0.60;99.90;;;;;;5003587;28;20218;-78
2022/01/26 04:20:59;;;;;;;0.70;0.70;;;0.70;99.90;;;;;;5008544;28;20246;-78
2022/01/26 04:23:34;;;;;;;0.65;0.65;;;0.70;99.90;;;;;;5014773;28;20260;-78
2022/01/26 04:26:00;;;;;;;0.63;0.63;;;0.70;99.90;;;;;;5014011;28;20210;-77
2022/01/26 04:28:37;;;;;;;0.70;0.70;;;0.60;99.90;;;;;;5015316;28;20199;-79
2022/01/26 04:31:03;;;;;;;0.50;0.50;;;0.70;99.90;;;;;;5012526;28;20190;-79
2022/01/26 04:33:32;;;;;;;0.60;0.60;;;0.70;99.90;;;;;;5014811;28;20205;-79
2022/01/26 04:35:58;;;;;;;0.70;0.70;;;0.70;99.90;;;;;;5012691;28;20195;-78
2022/01/26 04:38:34;;;;;;;0.60;0.60;;;0.90;99.90;;;;;;5013289;28;20708;-79
2022/01/26 04:43:29;;;;;;;0.70;0.70;;;1.20;99.90;;;;;;5014635;28;20293;-78
2022/01/26 04:45:55;;;;;;;0.60;0.60;;;1.30;99.90;;;;;;5015132;28;20257;-78
2022/01/26 04:48:21;;;;;;;0.70;0.70;;;1.20;99.90;;;;;;5013395;28;20218;-78
2022/01/26 04:50:47;;;;;;;0.50;0.50;;;1.20;99.90;;;;;;5014694;28;20309;-78
2022/01/26 04:53:12;;;;;;;0.50;0.50;;;1.20;99.90;;;;;;5014396;28;20203;-78
2022/01/26 04:55:38;;;;;;;0.60;0.60;;;1.20;99.90;;;;;;5014134;28;20229;-78
2022/01/26 04:58:04;;;;;;;0.70;0.70;;;1.30;99.90;;;;;;5013675;28;20198;-78
2022/01/26 05:00:30;;;;;;;2.85;1.60;;;1.50;99.90;;;;;;5014708;28;20194;-79
2022/01/26 05:02:55;;;;;;;0.65;0.65;;;1.60;99.90;;;;;;5015285;28;20198;-79
2022/01/26 05:05:21;;;;;;;0.50;0.50;;;1.60;99.90;;;;;;5016536;28;20615;-78
2022/01/26 05:07:47;;;;;;;0.60;0.60;;;1.60;99.90;;;;;;5013935;28;20210;-78
2022/01/26 05:10:13;;;;;;;1.15;1.05;;;1.50;99.90;;;;;;5014481;28;20195;-79
2022/01/26 05:12:40;;;;;;;0.88;0.88;;;1.50;99.90;;;;;;5014347;28;20207;-78
2022/01/26 05:15:06;;;;;;;0.50;0.50;;;1.50;99.90;;;;;;5016784;28;20199;-78
2022/01/26 05:17:31;;;;;;;0.55;0.55;;;1.50;99.90;;;;;;5016899;28;20211;-79
2022/01/26 05:19:59;;;;;;;0.50;0.50;;;1.50;99.90;;;;;;5016848;28;20199;-79
2022/01/26 05:22:25;;;;;;;1.02;1.02;;;1.50;99.90;;;;;;5014866;28;20706;-80
2022/01/26 05:24:52;;;;;;;2.85;0.95;;;1.40;99.90;;;;;;5015220;28;20237;-79
2022/01/26 05:27:18;;;;;;;0.70;0.70;;;1.40;99.90;;;;;;5015093;28;20210;-78
2022/01/26 05:29:45;;;;;;;0.60;0.60;;;1.30;99.90;;;;;;5012796;28;20203;-79
2022/01/26 05:32:10;;;;;;;0.60;0.60;;;1.10;99.90;;;;;;5017142;28;20203;-79
2022/01/26 05:34:36;;;;;;;0.60;0.60;;;1.10;99.90;;;;;;5013898;28;20576;-79
2022/01/26 05:37:02;;;;;;;0.60;0.60;;;1.00;99.90;;;;;;5015315;28;20210;-78
2022/01/26 05:39:28;;;;;;;0.52;0.52;;;1.00;99.90;;;;;;5015154;28;20207;-78
2022/01/26 05:41:53;;;;;;;1.48;1.42;;;1.00;99.90;;;;;;5015322;28;20207;-79
2022/01/26 05:44:19;;;;;;;1.85;1.25;;;1.20;99.90;;;;;;5015609;28;20207;-78
2022/01/26 05:46:48;;;;;;;0.80;0.80;;;1.30;99.90;;;;;;5012690;28;20205;-77
2022/01/26 05:49:16;;;;;;;0.60;0.60;;;1.20;99.90;;;;;;5014858;28;20260;-76
2022/01/26 05:51:45;;;;;;;0.93;0.93;;;1.30;99.90;;;;;;5015434;28;20671;-77
2022/01/26 05:54:11;;;;;;;0.60;0.60;;;1.30;99.90;;;;;;5016028;28;20726;-77
2022/01/26 05:56:37;;;;;;;0.90;0.88;;;1.10;99.90;;;;;;5014276;28;20234;-77
2022/01/26 05:59:03;;;;;;;0.60;0.60;;;1.10;99.90;;;;;;5003451;28;20671;-77
2022/01/26 06:01:30;;;;;;;0.60;0.60;;;1.40;99.90;;;;;;5008959;28;20280;-78
2022/01/26 06:03:55;;;;;;;0.65;0.65;;;1.50;99.90;;;;;;5014854;28;20659;-78
2022/01/26 06:06:21;;;;;;;0.60;0.60;;;1.40;99.90;;;;;;5014836;28;20257;-77
2022/01/26 06:08:47;;;;;;;0.60;0.60;;;1.30;99.90;;;;;;5013620;28;20569;-77
2022/01/26 06:11:13;;;;;;;0.88;0.80;;;1.70;99.90;;;;;;5015338;28;20195;-78
2022/01/26 06:13:39;;;;;;;0.60;0.60;;;1.60;99.90;;;;;;5014457;28;20203;-77
2022/01/26 06:16:05;;;;;;;0.65;0.65;;;1.70;99.90;;;;;;5013368;28;20199;-78
2022/01/26 06:18:30;;;;;;;0.57;0.57;;;1.90;99.90;;;;;;5014400;28;20560;-78
2022/01/26 06:20:56;;;;;;;0.60;0.60;;;1.60;99.90;;;;;;5011483;28;20198;-78
2022/01/26 06:23:25;;;;;;;0.68;0.68;;;1.60;99.90;;;;;;5000757;28;20674;-78
2022/01/26 06:25:53;;;;;;;0.60;0.60;;;1.60;99.90;;;;;;5013614;28;20295;-78
2022/01/26 06:28:19;;;;;;;0.75;0.75;;;1.60;99.90;;;;;;5013481;28;20219;-79
2022/01/26 06:30:46;;;;;;;0.50;0.50;;;1.50;99.90;;;;;;4997649;28;20235;-78
2022/01/26 06:33:13;;;;;;;0.75;0.75;;;1.50;99.90;;;;;;5010828;28;20643;-80
2022/01/26 06:35:39;;;;;;;0.60;0.60;;;1.50;99.90;;;;;;5010874;28;20211;-79
2022/01/26 06:38:05;;;;;;;0.60;0.60;;;1.60;99.90;;;;;;5014067;28;20205;-77
2022/01/26 06:40:31;;;;;;;0.68;0.68;;;1.50;99.90;;;;;;4996762;28;20203;-77
2022/01/26 06:43:01;;;;;;;0.80;0.80;;;1.40;99.90;;;;;;5010765;28;20210;-78
2022/01/26 06:45:31;;;;;;;0.60;0.60;;;1.40;99.90;;;;;;5013992;28;20686;-79
2022/01/26 06:50:26;;;;;;;0.65;0.65;;;1.30;99.90;;;;;;5016888;28;20254;-77
2022/01/26 06:52:52;;;;;;;0.70;0.70;;;1.10;99.90;;;;;;5014586;28;20199;-77
2022/01/26 06:55:19;;;;;;;0.60;0.60;;;1.00;99.90;;;;;;5017109;28;20210;-81
2022/01/26 06:57:45;;;;;;;0.60;0.60;;;1.00;99.90;;;;;;5018615;28;20705;-85
2022/01/26 07:00:12;;;;;;;0.63;0.63;;;1.00;99.90;;;;;;5020427;28;20211;-83
2022/01/26 07:02:39;;;;;;;0.70;0.70;;;0.90;99.90;;;;;;5021073;28;20203;-83
2022/01/26 07:05:06;;;;;;;0.52;0.52;;;1.00;99.90;;;;;;5014455;28;20670;-77
2022/01/26 07:07:32;;;;;;;0.60;0.60;;;1.20;99.90;;;;;;5016938;28;20245;-78
2022/01/26 07:09:58;;;;;;;2.70;1.98;;;1.10;99.90;;;;;;5015995;28;20199;-80
2022/01/26 07:12:24;;;;;;;0.60;0.60;;;1.10;99.90;;;;;;5016815;28;20544;-83
2022/01/26 07:22:49;;;;;;;0.90;0.90;;;1.60;99.90;;;;;;5017225;28;20202;-81
2022/01/26 07:25:15;;;;;;;0.60;0.60;;;1.60;99.90;;;;;;5017536;28;20538;-82
2022/01/26 07:27:42;;;;;;;0.70;0.70;;;1.50;99.90;;;;;;5018081;28;20290;-83
2022/01/26 07:30:09;;;;;;;0.60;0.60;;;1.40;99.90;;;;;;5018009;28;20194;-82
2022/01/26 07:32:37;;;;;;;0.50;0.50;;;1.40;99.90;;;;;;5016188;28;20259;-82
2022/01/26 07:35:04;;;;;;;0.60;0.60;;;1.40;99.90;;;;;;5017559;28;20193;-81
2022/01/26 07:37:30;;;;;;;0.80;0.80;;;1.40;99.90;;;;;;5016875;28;20211;-83
2022/01/26 07:40:09;;;;;;;0.60;0.60;;;1.40;99.90;;;;;;5015099;28;20217;-82
2022/01/26 07:42:37;;;;;;;0.50;0.50;;;1.40;99.90;;;;;;5016933;28;20289;-83
2022/01/26 07:45:06;;;;;;;0.75;0.75;;;1.40;99.90;;;;;;5015691;28;20195;-83
2022/01/26 07:47:32;;;;;;;0.70;0.70;;;1.40;99.90;;;;;;4998790;28;20249;-80
2022/01/26 07:50:00;;;;;;;0.57;0.57;;;1.50;99.90;;;;;;4999521;28;20733;-81
2022/01/26 07:52:27;;;;;;;0.60;0.60;;;1.50;99.90;;;;;;5017963;28;20286;-81
2022/01/26 07:54:54;;;;;;;0.60;0.60;;;1.50;99.90;;;;;;5017005;28;20577;-83
2022/01/26 07:57:20;;;;;;;0.93;0.93;;;1.50;99.90;;;;;;5016164;28;20207;-82
2022/01/26 07:59:46;;;;;;;0.60;0.60;;;1.50;99.90;;;;;;5016316;28;20229;-83
2022/01/26 08:02:12;;;;;;;0.60;0.60;;;1.60;99.90;;;;;;5003877;28;20635;-82
2022/01/26 08:04:38;;;;;;;0.57;0.57;;;1.70;99.90;;;;;;5012631;28;20285;-80
2022/01/26 08:07:04;;;;;;;0.60;0.60;;;1.90;99.90;;;;;;5013556;28;20265;-78
2022/01/26 08:09:29;;;;;;;0.73;0.73;;;1.80;99.90;;;;;;5015321;28;20211;-80
2022/01/26 08:12:01;;;;;;;0.50;0.50;;;1.80;99.90;;;;;;5006002;28;20238;-79
2022/01/26 08:14:26;;;;;;;1.65;1.55;;;1.70;99.90;;;;;;5011301;28;20202;-81
2022/01/26 08:16:52;;;;;;;0.60;0.60;;;1.70;99.90;;;;;;5018400;28;20231;-82
2022/01/26 08:19:18;;;;;;;0.60;0.60;;;1.60;99.90;;;;;;5017438;28;20219;-84
2022/01/26 08:21:44;;;;;;;0.50;0.50;;;1.70;99.90;;;;;;5015883;28;20222;-81
2022/01/26 08:24:14;;;;;;;0.60;0.60;;;1.70;99.90;;;;;;5011288;28;20207;-79
2022/01/26 08:26:46;;;;;;;0.50;0.50;;;1.60;99.90;;;;;;5006532;28;20214;-79
2022/01/26 08:29:17;;;;;;;0.52;0.52;;;1.70;99.90;;;;;;5016526;28;20222;-82
2022/01/26 08:31:43;;;;;;;0.50;0.50;;;1.90;99.90;;;;;;5015256;28;20198;-80
2022/01/26 08:34:10;;;;;;;0.73;0.73;;;2.00;99.90;;;;;;5015044;28;20209;-80
2022/01/26 08:36:35;;;;;;;0.50;0.50;;;2.10;99.90;;;;;;5014251;28;20210;-79
2022/01/26 08:39:02;;;;;;;0.60;0.60;;;2.20;99.90;;;;;;5016985;28;20215;-80
2022/01/26 08:41:28;;;;;;;1.25;1.15;;;2.50;99.90;;;;;;5016507;28;20246;-81
2022/01/26 08:43:54;;;;;;;0.60;0.60;;;2.90;99.90;;;;;;5018560;28;20198;-82
2022/01/26 08:46:20;;;;;;;0.70;0.70;;;3.10;99.90;;;;;;5018400;28;20213;-82
2022/01/26 08:48:46;;;;;;;0.57;0.57;;;3.20;99.90;;;;;;5016098;28;20211;-80
2022/01/26 08:51:13;;;;;;;0.73;0.73;;;3.40;99.90;;;;;;5018098;28;20274;-79
2022/01/26 08:53:39;;;;;;;0.60;0.60;;;3.50;99.90;;;;;;5014271;28;21231;-80
2022/01/26 08:56:04;;;;;;;1.30;1.23;;;3.50;99.90;;;;;;5015371;28;20195;-78
2022/01/26 08:58:30;;;;;;;0.60;0.60;;;3.50;99.90;;;;;;5013599;28;20210;-77
2022/01/26 09:00:57;;;;;;;0.60;0.60;;;3.50;99.90;;;;;;5013330;28;20201;-78
2022/01/26 09:03:23;;;;;;;0.70;0.70;;;3.50;99.90;;;;;;5016771;28;20215;-80
2022/01/26 09:05:48;;;;;;;0.60;0.60;;;3.60;99.90;;;;;;5014272;28;20674;-79
2022/01/26 09:08:14;;;;;;;0.55;0.55;;;3.60;99.90;;;;;;5014100;28;20206;-79
2022/01/26 09:10:41;;;;;;;0.52;0.52;;;3.40;99.90;;;;;;5014145;28;20234;-83
2022/01/26 09:13:07;;;;;;;0.60;0.60;;;3.30;99.90;;;;;;5014347;28;20207;-83
2022/01/26 09:15:33;;;;;;;0.60;0.60;;;3.30;99.90;;;;;;5018637;28;20202;-84
2022/01/26 09:18:03;;;;;;;0.80;0.80;;;3.30;99.90;;;;;;5018355;28;20642;-83
2022/01/26 09:20:29;;;;;;;1.40;0.98;;;3.20;99.90;;;;;;5017016;28;20625;-83
2022/01/26 09:22:55;;;;;;;0.60;0.60;;;3.10;99.90;;;;;;5018011;28;20211;-83
2022/01/26 09:25:21;;;;;;;0.60;0.60;;;3.10;99.90;;;;;;5017122;28;20214;-83
2022/01/26 09:27:47;;;;;;;0.70;0.70;;;3.20;99.90;;;;;;5017994;28;20222;-82
2022/01/26 09:30:13;;;;;;;1.05;1.05;;;3.10;99.90;;;;;;5017090;28;20191;-83
2022/01/26 09:32:39;;;;;;;0.70;0.70;;;3.10;99.90;;;;;;5012575;28;20198;-82
2022/01/26 09:35:09;;;;;;;0.70;0.70;;;3.00;99.90;;;;;;5000040;28;20197;-82
2022/01/26 09:37:35;;;;;;;0.63;0.63;;;2.90;99.90;;;;;;5014579;28;20202;-82
2022/01/26 09:40:01;;;;;;;0.63;0.63;;;2.90;99.90;;;;;;4997863;28;20694;-84
2022/01/26 09:42:26;;;;;;;0.60;0.60;;;2.80;99.90;;;;;;5017353;28;20194;-85
2022/01/26 09:44:52;;;;;;;0.70;0.70;;;2.80;99.90;;;;;;5033201;28;20206;-82
2022/01/26 09:47:21;;;;;;;0.60;0.60;;;2.70;99.90;;;;;;5016430;28;20301;-82
2022/01/26 09:49:49;;;;;;;0.70;0.70;;;2.60;99.90;;;;;;5015811;28;20314;-79
2022/01/26 09:52:28;;;;;;;0.55;0.55;;;2.60;99.90;;;;;;5016172;28;20203;-82
2022/01/26 09:54:58;;;;;;;0.70;0.70;;;2.50;99.90;;;;;;5016889;28;20293;-82
2022/01/26 09:57:24;;;;;;;1.20;1.10;;;2.50;99.90;;;;;;5016419;28;20294;-79
2022/01/26 09:59:49;;;;;;;1.50;1.40;;;2.50;99.90;;;;;;5013920;28;20557;-80
2022/01/26 10:02:34;;;;;;;0.73;0.73;;;2.50;99.90;;;;;;5013865;28;20289;-78
2022/01/26 10:05:06;;;;;;;0.60;0.60;;;2.40;99.90;;;;;;5013907;28;20214;-82
2022/01/26 10:08:16;;;;;;;0.70;0.70;;;2.40;99.90;;;;;;5013324;28;20202;-78
2022/01/26 10:16:23;;;;;;;0.70;0.70;;;3.30;99.90;;;;;;5013221;28;20268;-79
2022/01/26 10:18:54;;;;;;;0.60;0.60;;;3.90;99.90;;;;;;5017904;28;20214;-81
2022/01/26 10:21:20;;;;;;;0.60;0.60;;;4.20;99.90;;;;;;5019213;28;20207;-80
2022/01/26 10:23:46;;;;;;;0.60;0.60;;;4.50;99.90;;;;;;5018878;28;20557;-78
2022/01/26 10:26:14;;;;;;;0.60;0.60;;;4.70;99.90;;;;;;5019710;28;20206;-78
2022/01/26 10:28:53;;;;;;;0.60;0.60;;;4.80;99.90;;;;;;5033027;28;20210;-78
2022/01/26 10:31:41;;;;;;;1.00;0.93;;;4.80;99.90;;;;;;5018752;28;20203;-81
2022/01/26 10:34:15;;;;;;;0.60;0.60;;;5.00;99.90;;;;;;5018301;28;20199;-79
2022/01/26 10:36:46;;;;;;;0.70;0.70;;;4.80;99.90;;;;;;5020306;28;20757;-82
2022/01/26 10:39:30;;;;;;;2.25;1.75;;;4.80;99.90;;;;;;5021122;28;20202;-81
2022/01/26 10:42:01;;;;;;;0.80;0.80;;;4.70;99.90;;;;;;5019033;28;20210;-81
2022/01/26 10:44:34;;;;;;;0.77;0.77;;;4.70;99.90;;;;;;5017026;28;20198;-78
2022/01/26 10:47:02;;;;;;;0.70;0.70;;;4.90;99.90;;;;;;5016294;28;20369;-82
2022/01/26 10:54:51;;;;;;;0.65;0.65;;;5.30;99.90;;;;;;5020579;28;20607;-79
2022/01/26 10:57:17;;;;;;;0.60;0.60;;;5.40;99.90;;;;;;5018860;28;20206;-80
2022/01/26 10:59:45;;;;;;;3.75;2.00;;;5.40;99.90;;;;;;5020568;28;20209;-81
2022/01/26 11:02:13;;;;;;;0.80;0.80;;;5.40;99.90;;;;;;5009564;28;20215;-80
2022/01/26 11:04:41;;;;;;;0.70;0.70;;;5.40;99.90;;;;;;5011117;28;20202;-80
2022/01/26 11:07:10;;;;;;;1.13;1.13;;;5.30;99.90;;;;;;5020011;28;20209;-80
2022/01/26 11:09:38;;;;;;;0.60;0.60;;;5.40;99.90;;;;;;5019125;28;20218;-80
2022/01/26 11:12:10;;;;;;;0.70;0.70;;;5.30;99.90;;;;;;5017327;28;20233;-80
2022/01/26 11:14:43;;;;;;;0.68;0.68;;;5.40;99.90;;;;;;5020143;28;20203;-80
2022/01/26 11:17:33;;;;;;;0.70;0.70;;;5.40;99.90;;;;;;5016777;28;20211;-87
2022/01/26 11:20:01;;;;;;;0.60;0.60;;;5.40;99.90;;;;;;5017281;28;20199;-80
2022/01/26 11:22:30;;;;;;;0.68;0.68;;;5.40;99.90;;;;;;5020274;28;20337;-78
2022/01/26 11:25:08;;;;;;;0.65;0.65;;;5.40;99.90;;;;;;5018555;28;20205;-81
2022/01/26 11:27:36;;;;;;;0.82;0.82;;;5.20;99.90;;;;;;5018136;28;20261;-83
2022/01/26 11:30:15;;;;;;;0.70;0.70;;;5.10;99.90;;;;;;5018299;28;20256;-81
2022/01/26 11:32:50;;;;;;;1.15;1.15;;;5.10;99.90;;;;;;5018535;28;20209;-81
2022/01/26 11:35:16;;;;;;;0.60;0.60;;;5.00;99.90;;;;;;5019792;28;20276;-80
2022/01/26 11:37:47;;;;;;;0.60;0.60;;;5.20;99.90;;;;;;5018816;28;20207;-81
2022/01/26 11:46:11;;;;;;;0.70;0.70;;;5.50;99.90;;;;;;5002163;28;20221;-79
2022/01/26 11:48:38;;;;;;;0.70;0.70;;;5.60;99.90;;;;;;5015552;28;20583;-79
2022/01/26 11:51:05;;;;;;;1.05;1.05;;;5.60;99.90;;;;;;5018190;28;20203;-80
2022/01/26 11:53:32;;;;;;;0.70;0.70;;;5.50;99.90;;;;;;5017862;28;20199;-79
2022/01/26 11:56:20;;;;;;;0.60;0.60;;;5.40;99.90;;;;;;5019416;28;20265;-79
2022/01/26 11:58:47;;;;;;;0.65;0.65;;;5.30;99.90;;;;;;5017433;28;20556;-78
2022/01/26 12:01:24;;;;;;;0.70;0.70;;;5.10;99.90;;;;;;5007496;28;20195;-79
2022/01/26 12:04:09;;;;;;;0.70;0.70;;;5.10;99.90;;;;;;5015850;28;20694;-79
2022/01/26 12:06:42;;;;;;;0.50;0.50;;;5.00;99.90;;;;;;5016041;28;20198;-78
2022/01/26 12:09:09;;;;;;;0.70;0.70;;;5.00;99.90;;;;;;5015323;28;20696;-80
2022/01/26 12:11:37;;;;;;;0.63;0.63;;;5.00;99.90;;;;;;5017132;28;20203;-79
2022/01/26 12:14:10;;;;;;;0.60;0.60;;;5.10;99.90;;;;;;5014730;28;20205;-80
2022/01/26 12:16:46;;;;;;;0.50;0.50;;;5.00;99.90;;;;;;4999759;28;20261;-79
2022/01/26 12:36:19;;;;;;;0.60;0.60;;;4.30;99.90;;;;;;5016009;28;20716;-79
2022/01/26 12:41:30;;;;;;;0.60;0.60;;;4.20;99.90;;;;;;5017064;28;20230;-79
2022/01/26 12:43:59;;;;;;;29.20;9.48;;;4.00;99.90;;;;;;4999254;28;20203;-79
2022/01/26 12:46:33;;;;;;;2.35;2.15;;;3.90;99.90;;;;;;5015096;28;20696;-78
2022/01/26 12:49:00;;;;;;;1.38;1.27;;;3.80;99.90;;;;;;4997611;28;20807;-79
2022/01/26 12:51:28;;;;;;;6.60;1.67;;;3.80;99.90;;;;;;5016038;28;20209;-78
2022/01/26 12:53:56;;;;;;;1.70;1.52;;;3.70;99.90;;;;;;5016448;28;20229;-79
2022/01/26 12:56:25;;;;;;;3.33;2.45;;;3.70;99.90;;;;;;5008936;28;20198;-81
2022/01/26 12:59:00;;;;;;;0.63;0.63;;;3.60;99.90;;;;;;4996300;28;20302;-79
2022/01/26 13:01:26;;;;;;;6.28;1.48;;;3.50;99.90;;;;;;5030152;28;20203;-79
2022/01/26 13:03:58;;;;;;;2.05;1.85;;;3.30;99.90;;;;;;5014445;28;20686;-78
2022/01/26 13:06:26;;;;;;;0.80;0.80;;;3.20;99.90;;;;;;5015687;28;20199;-78
2022/01/26 13:08:56;;;;;;;0.68;0.68;;;3.20;99.90;;;;;;5014228;28;20230;-80
2022/01/26 13:11:30;;;;;;;0.60;0.60;;;3.30;99.90;;;;;;5000957;28;20215;-78
2022/01/26 13:14:14;;;;;;;0.60;0.60;;;3.10;99.90;;;;;;5012474;28;20206;-78
2022/01/26 13:16:45;;;;;;;1.08;1.02;;;2.80;99.90;;;;;;5012712;28;20212;-79
2022/01/26 13:19:30;;;;;;;0.80;0.80;;;2.80;99.90;;;;;;5015526;28;20218;-79
2022/01/26 13:22:29;;;;;;;0.55;0.55;;;2.80;99.90;;;;;;5015780;28;20199;-79
2022/01/26 13:24:59;;;;;;;0.60;0.60;;;2.90;99.90;;;;;;5017862;28;20241;-80
2022/01/26 13:38:25;;;;;;;1.45;1.08;;;2.40;99.90;;;;;;5015216;28;20277;-80
2022/01/26 13:41:00;;;;;;;0.80;0.80;;;2.30;99.90;;;;;;5014258;28;20210;-81
2022/01/26 13:59:52;;;;;;;3.92;3.63;;;1.90;99.90;;;;;;4999642;28;20257;-79
2022/01/26 14:02:18;;;;;;;28.50;13.63;;;1.90;99.90;;;;;;5018626;28;20199;-78
2022/01/26 14:04:44;;;;;;;18.70;3.35;;;1.90;99.90;;;;;;5016848;28;20222;-78
2022/01/26 14:07:57;;;;;;;0.98;0.98;;;1.90;99.90;;;;;;5022156;28;20293;-83
2022/01/26 14:10:22;;;;;;;2.90;2.67;;;2.00;99.90;;;;;;5020746;28;20213;-83
2022/01/26 14:12:49;;;;;;;1.35;1.17;;;2.20;99.90;;;;;;5021109;28;20202;-82
2022/01/26 14:15:21;;;;;;;1.60;1.52;;;2.30;99.90;;;;;;5020269;28;20203;-82
2022/01/26 14:18:08;;;;;;;0.85;0.85;;;2.60;99.90;;;;;;5018902;28;20236;-80
2022/01/26 14:20:45;;;;;;;1.08;1.00;;;2.80;99.90;;;;;;4999377;28;20558;-80
2022/01/26 14:25:41;;;;;;;0.80;0.80;;;3.00;99.90;;;;;;5019460;28;20215;-81
2022/01/26 14:28:09;;;;;;;0.70;0.70;;;3.20;99.90;;;;;;5021399;28;20302;-81
2022/01/26 15:22:52;;;;;;;0.63;0.63;;;1.70;99.90;;;;;;5015734;28;20203;-78
2022/01/26 16:07:39;;;;;;;0.80;0.80;;;-0.30;99.90;;;;;;4998918;28;20211;-78
2022/01/26 16:16:31;;;;;;;0.70;0.70;;;-0.50;99.90;;;;;;5014232;28;20217;-78
2022/01/26 18:17:59;;;;;;;0.70;0.70;;;-1.00;99.90;;;;;;5011678;28;20293;-76
2022/01/26 18:39:18;;;;;;;0.70;0.70;;;-1.10;99.90;;;;;;5012189;28;20575;-79
2022/01/26 18:50:03;;;;;;;0.70;0.70;;;-0.90;99.90;;;;;;4996837;28;20326;-80
2022/01/26 18:52:28;;;;;;;0.70;0.70;;;-0.90;99.90;;;;;;5015669;28;20661;-77
2022/01/26 18:54:54;;;;;;;0.70;0.70;;;-0.90;99.90;;;;;;5014022;28;20289;-79
2022/01/26 18:57:20;;;;;;;1.67;1.10;;;-1.00;99.90;;;;;;5015191;28;20581;-78
2022/01/26 18:59:46;;;;;;;0.80;0.80;;;-0.90;99.90;;;;;;5014352;28;20215;-79
2022/01/26 19:02:13;;;;;;;0.60;0.60;;;-0.80;99.90;;;;;;5002299;28;20682;-77
2022/01/26 19:04:46;;;;;;;0.70;0.70;;;-0.90;99.90;;;;;;5009540;28;20356;-79
2022/01/26 19:07:12;;;;;;;0.63;0.63;;;-0.80;99.90;;;;;;5014879;28;20207;-77
2022/01/26 19:09:42;;;;;;;0.68;0.68;;;-0.80;99.90;;;;;;5005686;28;20214;-78
2022/01/26 19:12:12;;;;;;;0.70;0.70;;;-0.80;99.90;;;;;;5008786;28;20724;-78
2022/01/26 19:14:41;;;;;;;0.50;0.50;;;-0.80;99.90;;;;;;5005667;28;20243;-79
2022/01/26 19:17:18;;;;;;;0.77;0.77;;;-0.70;99.90;;;;;;5006085;28;20199;-77
2022/01/26 19:20:08;;;;;;;0.63;0.63;;;-0.70;99.90;;;;;;5012961;28;20199;-78
2022/01/26 19:28:09;;;;;;;0.70;0.70;;;-0.70;99.90;;;;;;5014485;28;20741;-78
2022/01/26 19:44:15;;;;;;;0.70;0.70;;;-0.60;99.90;;;;;;5015899;28;20190;-79
2022/01/26 19:52:11;;;;;;;0.60;0.60;;;-0.50;99.90;;;;;;4998860;28;20743;-77
2022/01/26 19:54:39;;;;;;;0.70;0.70;;;-0.50;99.90;;;;;;5014075;28;20195;-78
2022/01/26 19:57:06;;;;;;;0.65;0.65;;;-0.50;99.90;;;;;;5006025;28;20659;-78
2022/01/26 19:59:32;;;;;;;0.80;0.80;;;-0.50;99.90;;;;;;5014734;28;20654;-80
2022/01/26 20:01:58;;;;;;;0.70;0.70;;;-0.40;99.90;;;;;;5014759;28;20214;-78
2022/01/26 20:04:24;;;;;;;0.80;0.80;;;-0.30;99.90;;;;;;5014405;28;20211;-77
2022/01/26 20:06:51;;;;;;;0.80;0.80;;;-0.30;99.90;;;;;;5013548;28;20238;-79
2022/01/26 20:09:26;;;;;;;0.70;0.70;;;-0.30;99.90;;;;;;5012945;28;20691;-78
2022/01/26 20:12:04;;;;;;;0.68;0.68;;;-0.30;99.90;;;;;;5016226;28;20345;-77
2022/01/26 20:14:34;;;;;;;0.70;0.70;;;-0.30;99.90;;;;;;4999210;28;20210;-78
2022/01/26 20:17:00;;;;;;;0.60;0.60;;;-0.30;99.90;;;;;;5011840;28;20209;-79
2022/01/26 20:19:27;;;;;;;0.80;0.80;;;-0.30;99.90;;;;;;4998445;28;20207;-79
2022/01/26 20:21:52;;;;;;;0.63;0.63;;;-0.20;99.90;;;;;;5011598;28;20206;-80